Time;durP1;ratioP1;P1;durP2;ratioP2;P2;SDS_P1;SDS_P2;PMS_P1;PMS_P2;Temp;Humidity;BMP_temperature;BMP_pressure;BME280_temperature;BME280_humidity;BME280_pressure;Samples;Min_cycle;Max_cycle;Signal;HPM_P1;HPM_P2
2023/07/21 00:00:22;;;;;;;9.40;6.75;;;;;;;;;;5040345;28;20040;-62
2023/07/21 00:02:49;;;;;;;8.65;6.25;;;;;;;;;;5032395;28;20043;-62
2023/07/21 00:05:16;;;;;;;8.18;6.30;;;;;;;;;;5030082;28;20033;-62
2023/07/21 00:07:42;;;;;;;8.27;6.90;;;;;;;;;;5033800;28;20033;-62
2023/07/21 00:10:09;;;;;;;7.93;6.95;;;;;;;;;;5029594;28;20493;-63
2023/07/21 00:12:35;;;;;;;10.07;7.25;;;;;;;;;;5034077;28;21276;-63
2023/07/21 00:15:01;;;;;;;8.90;6.75;;;;;;;;;;5033963;28;20038;-64
2023/07/21 00:17:28;;;;;;;9.57;7.20;;;;;;;;;;5039784;28;20033;-63
2023/07/21 00:19:53;;;;;;;9.05;7.00;;;;;;;;;;5044502;28;20037;-62
2023/07/21 00:22:19;;;;;;;8.80;7.55;;;;;;;;;;5059888;28;20041;-62
2023/07/21 00:24:45;;;;;;;10.05;7.20;;;;;;;;;;5049243;28;20147;-62
2023/07/21 00:27:11;;;;;;;8.52;6.65;;;;;;;;;;5033695;28;20026;-62
2023/07/21 00:29:36;;;;;;;9.32;7.03;;;;;;;;;;5034201;28;20104;-64
2023/07/21 00:32:02;;;;;;;9.50;7.28;;;;;;;;;;5040443;28;20052;-62
2023/07/21 00:34:28;;;;;;;11.80;7.53;;;;;;;;;;5053874;28;20060;-62
2023/07/21 00:36:57;;;;;;;8.25;6.80;;;;;;;;;;5041925;28;20033;-62
2023/07/21 00:39:25;;;;;;;8.50;7.10;;;;;;;;;;5034254;28;20455;-63
2023/07/21 00:41:51;;;;;;;9.45;6.95;;;;;;;;;;5036290;28;20021;-62
2023/07/21 00:44:16;;;;;;;9.95;7.63;;;;;;;;;;5051128;28;20052;-62
2023/07/21 00:46:42;;;;;;;9.07;7.25;;;;;;;;;;5052512;28;20508;-63
2023/07/21 00:49:08;;;;;;;8.95;6.88;;;;;;;;;;5059201;28;20020;-61
2023/07/21 00:51:34;;;;;;;8.45;6.90;;;;;;;;;;5059374;28;20047;-62
2023/07/21 00:54:00;;;;;;;7.85;6.80;;;;;;;;;;5052146;28;20109;-65
2023/07/21 00:56:26;;;;;;;8.65;6.90;;;;;;;;;;5036835;28;20436;-62
2023/07/21 00:58:52;;;;;;;9.10;7.20;;;;;;;;;;5034051;28;20501;-62
2023/07/21 01:01:17;;;;;;;8.27;6.82;;;;;;;;;;5045816;28;20060;-62
2023/07/21 01:03:43;;;;;;;10.90;7.68;;;;;;;;;;5035997;28;20041;-63
2023/07/21 01:06:09;;;;;;;8.45;6.75;;;;;;;;;;5051513;28;20103;-61
2023/07/21 01:08:35;;;;;;;8.48;6.95;;;;;;;;;;5039159;28;20042;-62
2023/07/21 01:11:01;;;;;;;9.63;7.32;;;;;;;;;;5032174;28;20056;-66
2023/07/21 01:13:27;;;;;;;9.55;7.35;;;;;;;;;;5036140;28;20462;-62
2023/07/21 01:15:55;;;;;;;9.25;7.50;;;;;;;;;;5048677;28;20458;-62
2023/07/21 01:18:21;;;;;;;9.20;7.28;;;;;;;;;;5049064;28;20120;-63
2023/07/21 01:20:48;;;;;;;9.05;7.93;;;;;;;;;;5038447;28;20457;-62
2023/07/21 01:23:26;;;;;;;9.63;7.28;;;;;;;;;;5032795;28;20040;-62
2023/07/21 01:25:52;;;;;;;9.93;7.97;;;;;;;;;;5033520;28;20049;-62
2023/07/21 01:28:19;;;;;;;9.63;8.48;;;;;;;;;;5032872;28;20033;-61
2023/07/21 01:30:45;;;;;;;11.18;7.90;;;;;;;;;;5046889;28;20119;-62
2023/07/21 01:33:13;;;;;;;8.77;7.55;;;;;;;;;;5041095;28;20074;-62
2023/07/21 01:35:40;;;;;;;9.10;7.45;;;;;;;;;;5049387;28;20110;-62
2023/07/21 01:38:07;;;;;;;10.18;7.40;;;;;;;;;;5050304;28;20102;-62
2023/07/21 01:40:33;;;;;;;10.80;7.60;;;;;;;;;;5041885;28;20378;-62
2023/07/21 01:42:59;;;;;;;9.02;6.93;;;;;;;;;;5033830;28;20037;-62
2023/07/21 01:45:25;;;;;;;8.93;7.00;;;;;;;;;;5047521;28;20478;-62
2023/07/21 01:47:51;;;;;;;8.95;7.13;;;;;;;;;;5037755;28;20071;-62
2023/07/21 01:50:18;;;;;;;9.65;7.40;;;;;;;;;;5049313;28;20334;-62
2023/07/21 01:52:45;;;;;;;8.77;7.28;;;;;;;;;;5053148;28;20099;-61
2023/07/21 01:55:14;;;;;;;9.68;7.57;;;;;;;;;;5047549;28;20033;-65
2023/07/21 01:57:48;;;;;;;8.18;6.97;;;;;;;;;;5050620;28;20116;-62
2023/07/21 02:00:15;;;;;;;10.02;7.60;;;;;;;;;;5038189;28;20033;-63
2023/07/21 02:02:42;;;;;;;8.45;7.03;;;;;;;;;;5040759;28;20028;-62
2023/07/21 02:05:27;;;;;;;9.15;7.05;;;;;;;;;;5041204;28;20029;-62
2023/07/21 02:07:52;;;;;;;9.23;7.30;;;;;;;;;;5031731;28;20040;-62
2023/07/21 02:10:18;;;;;;;9.15;7.72;;;;;;;;;;5033554;28;20038;-62
2023/07/21 02:12:44;;;;;;;8.80;7.07;;;;;;;;;;5034255;28;20033;-62
2023/07/21 02:15:10;;;;;;;10.40;7.90;;;;;;;;;;5037333;28;20040;-62
2023/07/21 02:17:37;;;;;;;9.75;7.88;;;;;;;;;;5035049;28;20034;-62
2023/07/21 02:20:08;;;;;;;8.98;7.35;;;;;;;;;;5039678;28;20029;-66
2023/07/21 02:22:43;;;;;;;9.98;8.10;;;;;;;;;;5045195;28;20381;-62
2023/07/21 02:25:09;;;;;;;9.93;8.38;;;;;;;;;;5051560;28;20500;-63
2023/07/21 02:27:35;;;;;;;10.40;8.10;;;;;;;;;;5045222;28;20037;-62
2023/07/21 02:30:01;;;;;;;10.73;7.97;;;;;;;;;;5063317;28;20367;-62
2023/07/21 02:32:30;;;;;;;9.57;7.40;;;;;;;;;;5063313;28;20120;-62
2023/07/21 02:34:57;;;;;;;9.35;7.38;;;;;;;;;;5052259;28;20033;-63
2023/07/21 02:37:23;;;;;;;9.80;8.20;;;;;;;;;;5065048;28;20644;-63
2023/07/21 02:39:48;;;;;;;10.80;8.18;;;;;;;;;;5072525;28;20061;-62
2023/07/21 02:42:14;;;;;;;10.10;7.50;;;;;;;;;;5054001;28;20424;-64
2023/07/21 02:44:39;;;;;;;10.85;8.20;;;;;;;;;;5037676;28;20465;-63
2023/07/21 02:47:07;;;;;;;11.63;9.43;;;;;;;;;;5042716;28;20060;-66
2023/07/21 02:49:33;;;;;;;10.20;8.55;;;;;;;;;;5031422;28;20060;-61
2023/07/21 02:51:58;;;;;;;14.18;9.82;;;;;;;;;;5039097;28;20460;-62
2023/07/21 02:54:23;;;;;;;10.93;9.52;;;;;;;;;;5033723;28;20039;-63
2023/07/21 02:56:49;;;;;;;11.75;9.63;;;;;;;;;;5045527;28;20037;-63
2023/07/21 02:59:15;;;;;;;14.85;10.65;;;;;;;;;;5048318;28;20029;-62
2023/07/21 03:01:40;;;;;;;13.35;10.43;;;;;;;;;;5047964;28;20543;-62
2023/07/21 03:04:07;;;;;;;12.95;10.50;;;;;;;;;;5054142;28;20430;-64
2023/07/21 03:06:33;;;;;;;12.90;10.80;;;;;;;;;;5066819;28;20393;-63
2023/07/21 03:08:59;;;;;;;13.38;10.73;;;;;;;;;;5033647;28;20051;-62
2023/07/21 03:11:24;;;;;;;13.45;10.27;;;;;;;;;;5029926;28;20033;-63
2023/07/21 03:13:50;;;;;;;14.88;11.57;;;;;;;;;;5042175;28;20029;-62
2023/07/21 03:16:15;;;;;;;15.35;11.82;;;;;;;;;;5029799;28;20045;-62
2023/07/21 03:18:41;;;;;;;14.70;11.85;;;;;;;;;;5039936;28;20882;-64
2023/07/21 03:21:10;;;;;;;12.90;10.48;;;;;;;;;;5032418;28;20386;-67
2023/07/21 03:23:36;;;;;;;14.98;12.32;;;;;;;;;;5034666;28;20064;-62
2023/07/21 03:26:01;;;;;;;14.95;12.13;;;;;;;;;;5033958;28;20053;-63
2023/07/21 03:28:27;;;;;;;14.70;12.13;;;;;;;;;;5046376;28;20252;-62
2023/07/21 03:30:58;;;;;;;17.48;12.35;;;;;;;;;;5050054;28;20037;-62
2023/07/21 03:33:24;;;;;;;16.13;13.27;;;;;;;;;;5052403;28;20032;-62
2023/07/21 03:36:09;;;;;;;18.70;12.85;;;;;;;;;;5050382;28;20028;-62
2023/07/21 03:38:35;;;;;;;15.75;12.20;;;;;;;;;;5045775;28;20565;-62
2023/07/21 03:41:01;;;;;;;16.63;13.30;;;;;;;;;;5038532;28;20125;-63
2023/07/21 03:43:27;;;;;;;16.38;13.43;;;;;;;;;;5057884;28;20044;-62
2023/07/21 03:45:57;;;;;;;17.20;13.98;;;;;;;;;;5041260;28;20069;-62
2023/07/21 03:48:23;;;;;;;16.52;13.20;;;;;;;;;;5042688;28;20033;-62
2023/07/21 03:50:48;;;;;;;20.48;13.70;;;;;;;;;;5046083;28;20048;-65
2023/07/21 03:53:14;;;;;;;18.90;14.57;;;;;;;;;;5047642;28;20036;-63
2023/07/21 03:55:41;;;;;;;17.38;13.30;;;;;;;;;;5030805;28;20041;-63
2023/07/21 03:58:07;;;;;;;17.92;13.68;;;;;;;;;;5029836;28;20103;-66
2023/07/21 04:00:33;;;;;;;16.40;13.10;;;;;;;;;;5033743;28;20033;-62
2023/07/21 04:02:59;;;;;;;17.20;13.13;;;;;;;;;;5048293;28;20036;-63
2023/07/21 04:05:25;;;;;;;18.63;12.98;;;;;;;;;;5048661;28;20037;-62
2023/07/21 04:07:50;;;;;;;16.92;13.05;;;;;;;;;;5061877;28;20032;-62
2023/07/21 04:10:16;;;;;;;17.77;13.25;;;;;;;;;;5038176;28;20405;-64
2023/07/21 04:12:41;;;;;;;19.88;14.10;;;;;;;;;;5035187;28;20064;-63
2023/07/21 04:15:07;;;;;;;17.35;13.95;;;;;;;;;;5037505;28;20025;-62
2023/07/21 04:17:32;;;;;;;19.73;13.98;;;;;;;;;;5033277;28;20025;-63
2023/07/21 04:19:58;;;;;;;16.13;13.25;;;;;;;;;;5035849;28;20029;-62
2023/07/21 04:22:23;;;;;;;19.55;13.93;;;;;;;;;;5033645;28;20076;-63
2023/07/21 04:24:49;;;;;;;19.90;14.60;;;;;;;;;;5060051;28;20036;-63
2023/07/21 04:27:14;;;;;;;21.25;15.32;;;;;;;;;;5040056;28;20037;-64
2023/07/21 04:29:40;;;;;;;18.45;14.63;;;;;;;;;;5044943;28;20047;-64
2023/07/21 04:32:05;;;;;;;16.38;13.98;;;;;;;;;;5039304;28;20440;-63
2023/07/21 04:34:31;;;;;;;16.17;13.80;;;;;;;;;;5038657;28;20718;-63
2023/07/21 04:36:57;;;;;;;18.52;14.02;;;;;;;;;;5049436;28;20035;-62
2023/07/21 04:39:22;;;;;;;18.63;14.45;;;;;;;;;;5054138;28;20450;-63
2023/07/21 04:41:47;;;;;;;17.33;13.65;;;;;;;;;;5035243;28;20382;-62
2023/07/21 04:44:13;;;;;;;18.20;14.52;;;;;;;;;;5034074;28;20077;-66
2023/07/21 04:46:38;;;;;;;18.48;13.65;;;;;;;;;;5034816;28;20065;-63
2023/07/21 04:49:09;;;;;;;16.45;13.32;;;;;;;;;;5046639;28;20028;-63
2023/07/21 04:51:34;;;;;;;17.45;13.70;;;;;;;;;;5053719;28;20087;-63
2023/07/21 04:54:00;;;;;;;19.80;13.80;;;;;;;;;;5058734;28;20036;-62
2023/07/21 04:56:26;;;;;;;18.73;13.98;;;;;;;;;;5073440;28;20465;-63
2023/07/21 04:58:52;;;;;;;16.80;14.13;;;;;;;;;;5074314;28;20039;-62
2023/07/21 05:01:17;;;;;;;18.30;13.27;;;;;;;;;;5073361;28;20020;-62
2023/07/21 05:03:42;;;;;;;15.82;13.15;;;;;;;;;;5074181;28;20069;-62
2023/07/21 05:06:09;;;;;;;16.67;13.27;;;;;;;;;;5059343;28;20465;-63
2023/07/21 05:08:35;;;;;;;14.88;13.05;;;;;;;;;;5053007;28;20787;-62
2023/07/21 05:11:00;;;;;;;17.30;13.32;;;;;;;;;;5063679;28;20029;-66
2023/07/21 05:13:26;;;;;;;18.70;13.55;;;;;;;;;;5049685;28;20033;-63
2023/07/21 05:15:51;;;;;;;15.50;12.93;;;;;;;;;;5052671;28;20040;-62
2023/07/21 05:18:17;;;;;;;20.90;14.48;;;;;;;;;;5052543;28;20531;-64
2023/07/21 05:20:42;;;;;;;16.50;13.27;;;;;;;;;;5051815;28;20033;-63
2023/07/21 05:23:09;;;;;;;16.35;13.02;;;;;;;;;;5056157;28;20116;-66
2023/07/21 05:25:34;;;;;;;19.33;13.75;;;;;;;;;;5050891;28;20033;-64
2023/07/21 05:27:59;;;;;;;15.80;12.88;;;;;;;;;;5051720;28;20086;-61
2023/07/21 05:30:25;;;;;;;16.48;13.23;;;;;;;;;;5050318;28;20131;-64
2023/07/21 05:32:50;;;;;;;21.90;13.85;;;;;;;;;;5053187;28;20037;-64
2023/07/21 05:35:16;;;;;;;16.65;12.68;;;;;;;;;;5051206;28;20024;-67
2023/07/21 05:37:41;;;;;;;15.48;12.52;;;;;;;;;;5039358;28;20108;-65
2023/07/21 05:40:09;;;;;;;17.17;13.45;;;;;;;;;;5044663;28;20036;-63
2023/07/21 05:42:35;;;;;;;16.30;13.60;;;;;;;;;;5052188;28;20037;-65
2023/07/21 05:45:02;;;;;;;16.88;13.15;;;;;;;;;;5052307;28;20041;-65
2023/07/21 05:47:27;;;;;;;15.93;12.95;;;;;;;;;;5049101;28;20035;-65
2023/07/21 05:50:00;;;;;;;18.85;13.68;;;;;;;;;;5053048;28;20029;-62
2023/07/21 05:52:26;;;;;;;16.05;12.82;;;;;;;;;;5050578;28;20141;-64
2023/07/21 05:54:51;;;;;;;16.73;14.00;;;;;;;;;;5046757;28;20071;-64
2023/07/21 05:57:16;;;;;;;17.02;13.52;;;;;;;;;;5049526;28;20045;-69
2023/07/21 05:59:43;;;;;;;16.58;13.35;;;;;;;;;;5042472;28;20033;-64
2023/07/21 06:02:08;;;;;;;17.38;13.35;;;;;;;;;;5045756;28;20108;-65
2023/07/21 06:04:33;;;;;;;16.33;13.00;;;;;;;;;;5032253;28;20164;-67
2023/07/21 06:06:59;;;;;;;17.98;13.32;;;;;;;;;;5047975;28;20036;-66
2023/07/21 06:09:24;;;;;;;18.63;13.48;;;;;;;;;;5051834;28;20029;-67
2023/07/21 06:11:50;;;;;;;15.20;12.88;;;;;;;;;;5052254;28;20033;-65
2023/07/21 06:14:15;;;;;;;16.15;12.60;;;;;;;;;;5050238;28;20028;-69
2023/07/21 06:16:40;;;;;;;21.15;13.00;;;;;;;;;;5045525;28;20090;-66
2023/07/21 06:19:06;;;;;;;15.77;12.40;;;;;;;;;;5052160;28;20028;-65
2023/07/21 06:21:32;;;;;;;15.95;11.90;;;;;;;;;;5051436;28;20389;-65
2023/07/21 06:23:57;;;;;;;14.57;11.85;;;;;;;;;;5067942;28;20355;-66
2023/07/21 06:26:22;;;;;;;14.38;11.60;;;;;;;;;;5050445;28;20040;-64
2023/07/21 06:28:48;;;;;;;15.80;11.38;;;;;;;;;;5051866;28;20060;-63
2023/07/21 06:31:14;;;;;;;12.85;10.82;;;;;;;;;;5052407;28;20462;-65
2023/07/21 06:33:40;;;;;;;13.52;10.88;;;;;;;;;;5045911;28;20041;-64
2023/07/21 06:36:06;;;;;;;14.68;11.57;;;;;;;;;;5056654;28;20037;-66
2023/07/21 06:38:31;;;;;;;13.48;11.32;;;;;;;;;;5053067;28;20473;-65
2023/07/21 06:40:57;;;;;;;15.35;11.38;;;;;;;;;;5055750;28;20071;-63
2023/07/21 06:43:22;;;;;;;14.52;11.60;;;;;;;;;;5053163;28;20108;-63
2023/07/21 06:45:48;;;;;;;15.82;11.60;;;;;;;;;;5053533;28;20037;-67
2023/07/21 06:48:14;;;;;;;15.20;11.52;;;;;;;;;;5050334;28;20539;-65
2023/07/21 06:50:39;;;;;;;14.68;10.45;;;;;;;;;;5057881;28;20107;-64
2023/07/21 06:53:06;;;;;;;11.65;10.10;;;;;;;;;;5055717;28;20039;-64
2023/07/21 06:55:32;;;;;;;13.50;10.45;;;;;;;;;;5037373;28;20120;-64
2023/07/21 06:57:58;;;;;;;13.13;10.68;;;;;;;;;;5040822;28;20029;-65
2023/07/21 07:00:24;;;;;;;13.50;10.90;;;;;;;;;;5051322;28;20059;-65
2023/07/21 07:02:50;;;;;;;17.50;11.25;;;;;;;;;;5053091;28;20071;-66
2023/07/21 07:05:16;;;;;;;16.20;11.35;;;;;;;;;;5043686;28;20060;-64
2023/07/21 07:07:42;;;;;;;14.18;11.65;;;;;;;;;;5051883;28;20079;-64
2023/07/21 07:10:08;;;;;;;13.45;11.77;;;;;;;;;;5054762;28;20087;-65
2023/07/21 07:12:34;;;;;;;17.83;13.30;;;;;;;;;;5051790;28;20120;-65
2023/07/21 07:14:59;;;;;;;15.23;12.57;;;;;;;;;;5041549;28;20430;-66
2023/07/21 07:17:25;;;;;;;17.17;14.43;;;;;;;;;;5051785;28;20029;-64
2023/07/21 07:19:50;;;;;;;16.40;13.18;;;;;;;;;;5052741;28;20037;-65
2023/07/21 07:22:16;;;;;;;16.45;13.32;;;;;;;;;;5052155;28;20033;-63
2023/07/21 07:24:43;;;;;;;15.00;12.75;;;;;;;;;;5051458;28;20449;-64
2023/07/21 07:27:12;;;;;;;16.42;13.10;;;;;;;;;;5051781;28;20040;-63
2023/07/21 07:29:37;;;;;;;14.63;12.13;;;;;;;;;;5048001;28;20060;-65
2023/07/21 07:32:03;;;;;;;14.82;11.85;;;;;;;;;;5037392;28;20044;-64
2023/07/21 07:34:28;;;;;;;12.60;10.43;;;;;;;;;;5036791;28;20428;-65
2023/07/21 07:36:54;;;;;;;12.90;9.63;;;;;;;;;;5062415;28;20116;-64
2023/07/21 07:39:20;;;;;;;14.35;10.05;;;;;;;;;;5039064;28;20036;-65
2023/07/21 07:41:45;;;;;;;13.00;9.48;;;;;;;;;;5063995;28;20135;-63
2023/07/21 07:44:11;;;;;;;11.63;9.57;;;;;;;;;;5074618;28;20131;-63
2023/07/21 07:46:39;;;;;;;10.02;8.73;;;;;;;;;;5061961;28;20534;-64
2023/07/21 07:49:05;;;;;;;11.63;9.30;;;;;;;;;;5049491;28;20108;-64
2023/07/21 07:51:30;;;;;;;12.07;9.27;;;;;;;;;;5045116;28;20136;-64
2023/07/21 07:53:57;;;;;;;10.20;8.57;;;;;;;;;;5054936;28;20052;-64
2023/07/21 07:56:22;;;;;;;10.50;7.82;;;;;;;;;;5053023;28;20059;-67
2023/07/21 07:58:48;;;;;;;12.82;8.68;;;;;;;;;;5055518;28;20056;-64
2023/07/21 08:01:13;;;;;;;9.00;7.88;;;;;;;;;;5054945;28;20064;-63
2023/07/21 08:03:43;;;;;;;10.25;8.15;;;;;;;;;;5048150;28;20077;-66
2023/07/21 08:06:10;;;;;;;10.18;7.63;;;;;;;;;;5052602;28;20029;-66
2023/07/21 08:08:36;;;;;;;9.48;6.97;;;;;;;;;;5056049;28;20049;-64
2023/07/21 08:11:02;;;;;;;9.63;7.75;;;;;;;;;;5070127;28;20457;-65
2023/07/21 08:13:27;;;;;;;10.68;7.18;;;;;;;;;;5053904;28;20029;-67
2023/07/21 08:15:53;;;;;;;10.90;7.30;;;;;;;;;;5038917;28;20051;-65
2023/07/21 08:18:18;;;;;;;11.85;8.23;;;;;;;;;;5054651;28;20029;-65
2023/07/21 08:20:43;;;;;;;9.95;7.70;;;;;;;;;;5053657;28;20659;-65
2023/07/21 08:23:09;;;;;;;10.40;7.63;;;;;;;;;;5055103;28;20045;-64
2023/07/21 08:25:35;;;;;;;9.82;7.22;;;;;;;;;;5054468;28;20565;-64
2023/07/21 08:28:03;;;;;;;11.55;8.07;;;;;;;;;;5054537;28;20033;-63
2023/07/21 08:30:29;;;;;;;10.55;8.25;;;;;;;;;;5053464;28;20389;-65
2023/07/21 08:32:58;;;;;;;10.45;8.50;;;;;;;;;;5034790;28;20080;-65
2023/07/21 08:35:24;;;;;;;11.02;8.32;;;;;;;;;;5050098;28;20132;-64
2023/07/21 08:37:49;;;;;;;11.70;8.85;;;;;;;;;;5052829;28;20110;-61
2023/07/21 08:40:16;;;;;;;10.13;8.10;;;;;;;;;;5053670;28;20094;-62
2023/07/21 08:42:42;;;;;;;11.38;8.52;;;;;;;;;;5053107;28;20381;-64
2023/07/21 08:45:08;;;;;;;10.30;7.88;;;;;;;;;;5053706;28;20474;-65
2023/07/21 08:47:34;;;;;;;14.50;8.70;;;;;;;;;;5052257;28;20033;-63
2023/07/21 08:50:04;;;;;;;12.50;9.10;;;;;;;;;;5036764;28;20116;-64
2023/07/21 08:52:31;;;;;;;12.10;9.57;;;;;;;;;;5048375;28;20094;-64
2023/07/21 08:54:56;;;;;;;11.38;9.30;;;;;;;;;;5052452;28;20032;-64
2023/07/21 08:57:22;;;;;;;11.00;9.00;;;;;;;;;;5054681;28;20489;-64
2023/07/21 08:59:49;;;;;;;10.82;8.70;;;;;;;;;;5053297;28;20021;-64
2023/07/21 09:02:15;;;;;;;9.80;8.32;;;;;;;;;;5049327;28;20037;-64
2023/07/21 09:04:43;;;;;;;11.10;7.78;;;;;;;;;;5062267;28;20035;-66
2023/07/21 09:07:10;;;;;;;10.27;8.02;;;;;;;;;;5049569;28;20098;-64
2023/07/21 09:09:35;;;;;;;9.85;8.45;;;;;;;;;;5052614;28;20393;-65
2023/07/21 09:12:08;;;;;;;11.75;9.10;;;;;;;;;;5054429;28;20039;-64
2023/07/21 09:14:36;;;;;;;9.60;8.10;;;;;;;;;;5053426;28;20024;-65
2023/07/21 09:17:06;;;;;;;10.25;8.18;;;;;;;;;;5051186;28;20115;-65
2023/07/21 09:19:47;;;;;;;9.02;7.85;;;;;;;;;;5062803;28;20146;-66
2023/07/21 09:22:13;;;;;;;;;;;;;;;;;;5055263;28;20032;-63
2023/07/21 09:24:51;;;;;;;10.75;6.85;;;;;;;;;;5046407;28;19916;-65
2023/07/21 09:27:18;;;;;;;12.18;8.15;;;;;;;;;;5053135;28;20040;-64
2023/07/21 09:29:45;;;;;;;12.93;7.38;;;;;;;;;;5053825;28;20056;-65
2023/07/21 09:32:15;;;;;;;12.15;6.85;;;;;;;;;;5052111;28;20041;-64
2023/07/21 09:35:04;;;;;;;8.02;6.35;;;;;;;;;;5052378;28;20389;-64
2023/07/21 09:37:32;;;;;;;9.98;8.60;;;;;;;;;;5050190;28;20384;-67
2023/07/21 09:40:05;;;;;;;9.00;7.45;;;;;;;;;;5053115;28;20040;-65
2023/07/21 09:42:33;;;;;;;10.57;6.40;;;;;;;;;;5051998;28;20056;-67
2023/07/21 09:44:58;;;;;;;7.75;5.45;;;;;;;;;;5057388;28;20466;-63
2023/07/21 09:47:25;;;;;;;8.40;4.93;;;;;;;;;;5050539;28;20040;-64
2023/07/21 09:49:54;;;;;;;7.43;4.90;;;;;;;;;;5050227;28;20083;-64
2023/07/21 09:52:21;;;;;;;10.83;5.53;;;;;;;;;;5051196;28;20032;-63
2023/07/21 09:55:13;;;;;;;8.38;5.50;;;;;;;;;;5052170;28;20029;-64
2023/07/21 09:57:44;;;;;;;7.00;4.95;;;;;;;;;;5050605;28;20029;-64
2023/07/21 10:00:14;;;;;;;6.63;5.30;;;;;;;;;;5059817;28;20032;-61
2023/07/21 10:02:48;;;;;;;7.28;6.10;;;;;;;;;;5059591;28;20049;-66
2023/07/21 10:05:13;;;;;;;7.75;5.28;;;;;;;;;;5047473;28;20033;-64
2023/07/21 10:07:46;;;;;;;6.40;4.75;;;;;;;;;;5047287;28;20040;-63
2023/07/21 10:10:12;;;;;;;6.60;4.82;;;;;;;;;;5052176;28;20032;-63
2023/07/21 10:12:49;;;;;;;6.82;4.50;;;;;;;;;;5049934;28;20045;-63
2023/07/21 10:15:31;;;;;;;6.28;4.47;;;;;;;;;;5047366;28;20028;-62
2023/07/21 10:17:59;;;;;;;5.40;4.03;;;;;;;;;;5051491;28;20044;-63
2023/07/21 10:20:38;;;;;;;5.85;4.25;;;;;;;;;;5052357;28;20028;-62
2023/07/21 10:23:03;;;;;;;7.15;5.45;;;;;;;;;;5052252;28;20036;-63
2023/07/21 10:25:44;;;;;;;8.38;6.63;;;;;;;;;;5051762;28;20147;-65
2023/07/21 10:28:12;;;;;;;10.40;6.95;;;;;;;;;;5053313;28;20029;-63
2023/07/21 10:30:37;;;;;;;9.07;6.00;;;;;;;;;;5051100;28;20075;-63
2023/07/21 10:33:22;;;;;;;6.63;5.93;;;;;;;;;;5052259;28;20068;-62
2023/07/21 10:35:48;;;;;;;5.40;4.40;;;;;;;;;;5051635;28;20029;-62
2023/07/21 10:38:13;;;;;;;5.07;4.10;;;;;;;;;;5052395;28;20033;-62
2023/07/21 10:40:45;;;;;;;6.03;4.40;;;;;;;;;;5051258;28;20463;-62
2023/07/21 10:43:11;;;;;;;7.20;4.20;;;;;;;;;;5050572;28;20041;-62
2023/07/21 10:45:37;;;;;;;5.10;4.30;;;;;;;;;;5050218;28;20029;-65
2023/07/21 10:48:16;;;;;;;6.35;3.67;;;;;;;;;;5051588;28;20029;-64
2023/07/21 10:50:51;;;;;;;4.63;2.83;;;;;;;;;;5051729;28;20029;-64
2023/07/21 10:53:16;;;;;;;5.00;3.20;;;;;;;;;;5064574;28;20047;-65
2023/07/21 10:55:41;;;;;;;6.43;4.70;;;;;;;;;;5070444;28;20036;-61
2023/07/21 10:58:07;;;;;;;6.63;4.75;;;;;;;;;;5058044;28;20115;-62
2023/07/21 11:00:45;;;;;;;5.80;4.60;;;;;;;;;;5047645;28;20044;-64
2023/07/21 11:03:10;;;;;;;5.63;4.70;;;;;;;;;;5051554;28;20033;-64
2023/07/21 11:05:36;;;;;;;6.20;4.10;;;;;;;;;;5050027;28;20457;-63
2023/07/21 11:08:02;;;;;;;3.83;3.05;;;;;;;;;;5046181;28;20037;-64
2023/07/21 11:10:33;;;;;;;4.07;3.00;;;;;;;;;;5052061;28;20475;-67
2023/07/21 11:13:00;;;;;;;4.90;3.10;;;;;;;;;;5045130;28;20124;-66
2023/07/21 11:15:26;;;;;;;6.35;3.30;;;;;;;;;;5064004;28;20470;-63
2023/07/21 11:18:02;;;;;;;6.15;4.10;;;;;;;;;;5058978;28;20033;-63
2023/07/21 11:20:28;;;;;;;4.95;3.60;;;;;;;;;;5052126;28;20108;-66
2023/07/21 11:22:53;;;;;;;4.80;3.45;;;;;;;;;;5045401;28;20116;-62
2023/07/21 11:25:19;;;;;;;4.95;3.10;;;;;;;;;;5033030;28;20026;-65
2023/07/21 11:27:45;;;;;;;5.18;3.30;;;;;;;;;;5048822;28;20082;-65
2023/07/21 11:30:17;;;;;;;4.85;3.63;;;;;;;;;;5052080;28;20025;-64
2023/07/21 11:32:42;;;;;;;6.32;3.20;;;;;;;;;;5051038;28;20071;-64
2023/07/21 11:35:08;;;;;;;5.22;3.13;;;;;;;;;;5051377;28;20029;-63
2023/07/21 11:37:39;;;;;;;6.88;3.20;;;;;;;;;;5051370;28;20060;-64
2023/07/21 11:40:15;;;;;;;4.20;3.20;;;;;;;;;;5051856;28;20025;-65
2023/07/21 11:42:45;;;;;;;5.25;2.80;;;;;;;;;;5047798;28;20550;-64
2023/07/21 11:45:38;;;;;;;7.13;3.28;;;;;;;;;;5050636;28;20045;-63
2023/07/21 11:48:18;;;;;;;5.00;3.03;;;;;;;;;;5050459;28;20481;-63
2023/07/21 11:50:52;;;;;;;4.60;3.13;;;;;;;;;;5066922;28;20032;-62
2023/07/21 11:53:23;;;;;;;4.47;2.80;;;;;;;;;;5060100;28;20037;-63
2023/07/21 11:55:49;;;;;;;3.90;3.00;;;;;;;;;;5049122;28;20025;-64
2023/07/21 11:58:14;;;;;;;5.00;3.10;;;;;;;;;;5051456;28;20040;-65
2023/07/21 12:00:42;;;;;;;4.72;2.90;;;;;;;;;;5050711;28;20029;-63
2023/07/21 12:03:09;;;;;;;4.43;2.80;;;;;;;;;;5051188;28;20079;-63
2023/07/21 12:05:34;;;;;;;3.63;2.90;;;;;;;;;;5049660;28;20104;-64
2023/07/21 12:08:00;;;;;;;4.53;3.30;;;;;;;;;;5050646;28;20140;-63
2023/07/21 12:10:26;;;;;;;5.53;3.40;;;;;;;;;;5050309;28;20063;-65
2023/07/21 12:12:52;;;;;;;5.05;3.83;;;;;;;;;;5062312;28;20522;-65
2023/07/21 12:15:19;;;;;;;7.30;4.30;;;;;;;;;;5049636;28;20049;-62
2023/07/21 12:17:46;;;;;;;5.97;4.00;;;;;;;;;;5049973;28;20056;-64
2023/07/21 12:20:11;;;;;;;5.35;3.75;;;;;;;;;;5050773;28;20029;-65
2023/07/21 12:22:41;;;;;;;5.72;3.95;;;;;;;;;;5050438;28;20473;-63
2023/07/21 12:25:10;;;;;;;5.43;4.07;;;;;;;;;;5051733;28;20044;-65
2023/07/21 12:27:36;;;;;;;6.40;3.60;;;;;;;;;;5043603;28;20026;-61
2023/07/21 12:30:06;;;;;;;8.40;4.50;;;;;;;;;;5052883;28;20083;-63
2023/07/21 12:32:31;;;;;;;6.65;4.20;;;;;;;;;;5057442;28;20077;-67
2023/07/21 12:34:56;;;;;;;5.60;4.13;;;;;;;;;;5074359;28;20449;-66
2023/07/21 12:37:22;;;;;;;6.18;3.85;;;;;;;;;;5073084;28;20034;-66
2023/07/21 12:39:48;;;;;;;6.20;3.85;;;;;;;;;;5051084;28;20110;-65
2023/07/21 12:42:14;;;;;;;6.05;4.32;;;;;;;;;;5035415;28;20458;-64
2023/07/21 12:44:39;;;;;;;5.82;3.88;;;;;;;;;;5053454;28;20052;-65
2023/07/21 12:47:05;;;;;;;5.43;3.30;;;;;;;;;;5054044;28;20051;-62
2023/07/21 12:49:32;;;;;;;6.07;4.10;;;;;;;;;;5053495;28;20033;-67
2023/07/21 12:51:57;;;;;;;8.32;4.25;;;;;;;;;;5053787;28;20049;-64
2023/07/21 12:54:22;;;;;;;4.60;3.30;;;;;;;;;;5041023;28;20117;-64
2023/07/21 12:56:48;;;;;;;5.70;3.20;;;;;;;;;;5034307;28;20686;-65
2023/07/21 12:59:13;;;;;;;5.35;3.70;;;;;;;;;;5049566;28;20033;-63
2023/07/21 13:01:39;;;;;;;4.28;3.20;;;;;;;;;;5042876;28;20030;-64
2023/07/21 13:04:04;;;;;;;4.88;3.00;;;;;;;;;;5057439;28;20037;-64
2023/07/21 13:06:29;;;;;;;4.32;3.47;;;;;;;;;;5057287;28;20441;-67
2023/07/21 13:08:56;;;;;;;4.22;3.50;;;;;;;;;;5058880;28;20448;-63
2023/07/21 13:11:21;;;;;;;5.57;3.90;;;;;;;;;;5054002;28;20473;-62
2023/07/21 13:13:50;;;;;;;6.75;4.30;;;;;;;;;;5056246;28;20040;-62
2023/07/21 13:16:16;;;;;;;4.28;3.35;;;;;;;;;;5054810;28;20029;-62
2023/07/21 13:18:41;;;;;;;5.93;3.28;;;;;;;;;;5055895;28;20470;-61
2023/07/21 13:21:07;;;;;;;5.22;3.30;;;;;;;;;;5051197;28;20038;-61
2023/07/21 13:23:32;;;;;;;6.63;3.83;;;;;;;;;;5053007;28;20033;-64
2023/07/21 13:25:59;;;;;;;3.90;3.10;;;;;;;;;;5036502;28;20065;-61
2023/07/21 13:28:24;;;;;;;5.35;3.75;;;;;;;;;;5033842;28;20541;-61
2023/07/21 13:30:50;;;;;;;5.57;3.40;;;;;;;;;;5033165;28;20080;-60
2023/07/21 13:33:15;;;;;;;5.45;3.38;;;;;;;;;;5033457;28;20071;-61
2023/07/21 13:35:41;;;;;;;5.80;3.47;;;;;;;;;;5040845;28;20116;-61
2023/07/21 13:38:06;;;;;;;4.13;3.20;;;;;;;;;;5054960;28;20037;-61
2023/07/21 13:40:32;;;;;;;4.78;3.60;;;;;;;;;;5054168;28;20078;-65
2023/07/21 13:42:58;;;;;;;5.05;3.25;;;;;;;;;;5054736;28;20025;-61
2023/07/21 13:45:23;;;;;;;6.90;3.63;;;;;;;;;;5056187;28;20116;-62
2023/07/21 13:47:49;;;;;;;5.53;3.33;;;;;;;;;;5058016;28;20036;-61
2023/07/21 13:50:14;;;;;;;6.97;3.70;;;;;;;;;;5054312;28;20025;-61
2023/07/21 13:52:40;;;;;;;6.65;4.28;;;;;;;;;;5053072;28;20041;-61
2023/07/21 13:55:05;;;;;;;6.18;4.55;;;;;;;;;;5053677;28;20037;-61
2023/07/21 13:57:31;;;;;;;7.85;4.68;;;;;;;;;;5054517;28;20385;-65
2023/07/21 13:59:57;;;;;;;10.65;6.88;;;;;;;;;;5053127;28;20035;-61
2023/07/21 14:02:22;;;;;;;13.32;7.35;;;;;;;;;;5054985;28;20028;-60
2023/07/21 14:04:49;;;;;;;6.28;4.45;;;;;;;;;;5052150;28;20028;-61
2023/07/21 14:07:14;;;;;;;8.25;5.68;;;;;;;;;;5053372;28;20032;-62
2023/07/21 14:09:39;;;;;;;22.67;10.80;;;;;;;;;;5051931;28;20029;-62
2023/07/21 14:12:05;;;;;;;12.85;7.05;;;;;;;;;;5053149;28;20047;-61
2023/07/21 14:14:31;;;;;;;6.82;5.90;;;;;;;;;;5053816;28;20033;-63
2023/07/21 14:16:56;;;;;;;9.23;6.20;;;;;;;;;;5052833;28;20029;-61
2023/07/21 14:19:22;;;;;;;8.90;6.25;;;;;;;;;;5062356;28;20035;-62
2023/07/21 14:21:47;;;;;;;8.23;6.00;;;;;;;;;;5071788;28;20033;-62
2023/07/21 14:24:13;;;;;;;8.73;6.43;;;;;;;;;;5072698;28;20028;-61
2023/07/21 14:26:38;;;;;;;7.97;5.78;;;;;;;;;;5060989;28;20091;-63
2023/07/21 14:29:03;;;;;;;7.10;6.00;;;;;;;;;;5059919;28;20056;-62
2023/07/21 14:31:31;;;;;;;8.93;6.22;;;;;;;;;;5070514;28;20036;-62